Aviation Digital Data Service (ADDS)

Output produced by METARs form (0151 UTC 24 April 2019)
found at http://aviationweather.gov/metar/data/
 
ELLX 240120Z AUTO 12003KT 9999 NCD 13/08 Q0999 NOSIG
TAF ELLX 232300Z 2400/2506 14007KT CAVOK 
     BECMG 2406/2408 19012KT 
     BECMG 2408/2411 SCT040TCU 
     TEMPO 2410/2417 21015G25KT SHRA SCT020 BKN040CB 
     PROB40 
     TEMPO 2411/2417 21025G35KT 3000 TSRAGR SCT010 BKN020CB 
     BECMG 2420/2423 14007KT